sensor_id;sensor_type;location;lat;lon;timestamp;pressure;altitude;pressure_sealevel;temperature;humidity
39823;BME280;25499;53.958;10.970;2024-02-23T07:08:06;98347.94;;;5.31;100.00
39823;BME280;25499;53.958;10.970;2024-02-23T07:10:33;98323.16;;;5.23;100.00
39823;BME280;25499;53.958;10.970;2024-02-23T07:13:00;98335.94;;;5.30;100.00
39823;BME280;25499;53.958;10.970;2024-02-23T07:15:27;98323.88;;;5.30;100.00
39823;BME280;25499;53.958;10.970;2024-02-23T07:17:55;98342.66;;;5.37;100.00
39823;BME280;25499;53.958;10.970;2024-02-23T07:20:22;98311.06;;;5.27;100.00
39823;BME280;25499;53.958;10.970;2024-02-23T07:22:49;98316.25;;;5.26;100.00
39823;BME280;25499;53.958;10.970;2024-02-23T07:25:17;98319.75;;;5.23;100.00
39823;BME280;25499;53.958;10.970;2024-02-23T07:27:46;98334.44;;;5.19;100.00
39823;BME280;25499;53.958;10.970;2024-02-23T07:30:14;98324.25;;;5.13;100.00
39823;BME280;25499;53.958;10.970;2024-02-23T07:32:41;98352.41;;;5.22;100.00
39823;BME280;25499;53.958;10.970;2024-02-23T07:35:09;98351.47;;;5.27;100.00
39823;BME280;25499;53.958;10.970;2024-02-23T07:37:36;98358.41;;;5.25;100.00
39823;BME280;25499;53.958;10.970;2024-02-23T07:40:03;98380.22;;;5.50;100.00
39823;BME280;25499;53.958;10.970;2024-02-23T07:42:32;98365.72;;;5.45;100.00
39823;BME280;25499;53.958;10.970;2024-02-23T07:45:01;98360.72;;;5.37;100.00
39823;BME280;25499;53.958;10.970;2024-02-23T07:47:30;98364.13;;;5.39;100.00
39823;BME280;25499;53.958;10.970;2024-02-23T07:49:58;98364.28;;;5.31;100.00
39823;BME280;25499;53.958;10.970;2024-02-23T07:52:24;98369.47;;;5.30;100.00
39823;BME280;25499;53.958;10.970;2024-02-23T07:54:52;98377.22;;;5.30;100.00
39823;BME280;25499;53.958;10.970;2024-02-23T07:57:19;98391.81;;;5.31;100.00
39823;BME280;25499;53.958;10.970;2024-02-23T07:59:47;98379.06;;;5.23;100.00
39823;BME280;25499;53.958;10.970;2024-02-23T08:02:14;98376.59;;;5.17;100.00
39823;BME280;25499;53.958;10.970;2024-02-23T08:04:41;98392.25;;;5.09;100.00
39823;BME280;25499;53.958;10.970;2024-02-23T08:07:09;98399.13;;;5.07;100.00
39823;BME280;25499;53.958;10.970;2024-02-23T08:09:36;98395.63;;;5.13;100.00
39823;BME280;25499;53.958;10.970;2024-02-23T08:12:03;98395.16;;;5.34;100.00
39823;BME280;25499;53.958;10.970;2024-02-23T08:14:31;98408.44;;;5.58;100.00
39823;BME280;25499;53.958;10.970;2024-02-23T08:17:00;98403.16;;;5.64;100.00
39823;BME280;25499;53.958;10.970;2024-02-23T08:19:27;98400.88;;;5.91;100.00
39823;BME280;25499;53.958;10.970;2024-02-23T08:21:54;98404.03;;;6.04;100.00
39823;BME280;25499;53.958;10.970;2024-02-23T08:24:22;98396.59;;;6.27;100.00
39823;BME280;25499;53.958;10.970;2024-02-23T08:26:51;98381.53;;;6.45;100.00
39823;BME280;25499;53.958;10.970;2024-02-23T08:29:19;98392.13;;;6.68;100.00
39823;BME280;25499;53.958;10.970;2024-02-23T08:31:45;98343.44;;;6.51;99.98
39823;BME280;25499;53.958;10.970;2024-02-23T08:34:13;98326.69;;;6.33;99.17
39823;BME280;25499;53.958;10.970;2024-02-23T08:36:42;98348.91;;;6.41;99.33
39823;BME280;25499;53.958;10.970;2024-02-23T08:39:09;98369.84;;;6.64;99.01
39823;BME280;25499;53.958;10.970;2024-02-23T08:41:36;98384.91;;;6.81;99.01
39823;BME280;25499;53.958;10.970;2024-02-23T08:44:03;98404.19;;;7.02;98.58
39823;BME280;25499;53.958;10.970;2024-02-23T08:46:30;98387.22;;;7.23;98.15
39823;BME280;25499;53.958;10.970;2024-02-23T08:48:57;98329.53;;;6.88;96.82
39823;BME280;25499;53.958;10.970;2024-02-23T08:51:25;98321.75;;;6.90;96.96
39823;BME280;25499;53.958;10.970;2024-02-23T08:53:52;98300.84;;;6.66;96.00
39823;BME280;25499;53.958;10.970;2024-02-23T08:56:18;98347.63;;;7.21;96.46
39823;BME280;25499;53.958;10.970;2024-02-23T08:58:45;98375.53;;;7.70;95.96
39823;BME280;25499;53.958;10.970;2024-02-23T09:01:13;98351.94;;;7.79;95.04
39823;BME280;25499;53.958;10.970;2024-02-23T09:03:40;98320.41;;;7.66;94.09
39823;BME280;25499;53.958;10.970;2024-02-23T09:06:07;98323.59;;;7.74;93.52
39823;BME280;25499;53.958;10.970;2024-02-23T09:08:35;98297.63;;;7.77;92.64
39823;BME280;25499;53.958;10.970;2024-02-23T09:11:02;98297.81;;;7.98;91.92
39823;BME280;25499;53.958;10.970;2024-02-23T09:13:30;98308.16;;;8.25;91.67
39823;BME280;25499;53.958;10.970;2024-02-23T09:15:57;98266.22;;;8.13;90.34
39823;BME280;25499;53.958;10.970;2024-02-23T09:18:24;98238.09;;;8.01;89.71
39823;BME280;25499;53.958;10.970;2024-02-23T09:20:51;98212.56;;;7.90;88.70
39823;BME280;25499;53.958;10.970;2024-02-23T09:23:18;98205.06;;;7.82;88.42
39823;BME280;25499;53.958;10.970;2024-02-23T09:25:47;98231.84;;;8.08;87.71
39823;BME280;25499;53.958;10.970;2024-02-23T09:28:14;98218.19;;;8.03;86.97
39823;BME280;25499;53.958;10.970;2024-02-23T09:30:42;98223.88;;;8.13;86.88
39823;BME280;25499;53.958;10.970;2024-02-23T09:33:09;98201.44;;;8.13;86.42
39823;BME280;25499;53.958;10.970;2024-02-23T09:35:36;98201.91;;;7.99;85.88
39823;BME280;25499;53.958;10.970;2024-02-23T09:38:04;98177.19;;;7.64;85.63
39823;BME280;25499;53.958;10.970;2024-02-23T09:40:31;98253.44;;;8.34;85.74
39823;BME280;25499;53.958;10.970;2024-02-23T09:43:00;98305.19;;;9.11;85.88
39823;BME280;25499;53.958;10.970;2024-02-23T09:45:28;98198.19;;;8.32;84.26
39823;BME280;25499;53.958;10.970;2024-02-23T09:47:57;98162.00;;;8.29;83.29
39823;BME280;25499;53.958;10.970;2024-02-23T09:50:25;98196.88;;;8.45;83.35
39823;BME280;25499;53.958;10.970;2024-02-23T09:52:56;98213.06;;;8.75;83.21
39823;BME280;25499;53.958;10.970;2024-02-23T09:55:25;98165.66;;;8.48;82.24
39823;BME280;25499;53.958;10.970;2024-02-23T09:57:56;98204.81;;;8.66;82.34
39823;BME280;25499;53.958;10.970;2024-02-23T10:00:28;98155.41;;;8.20;81.94
39823;BME280;25499;53.958;10.970;2024-02-23T10:02:58;98174.69;;;8.36;81.83
39823;BME280;25499;53.958;10.970;2024-02-23T10:05:30;98184.31;;;8.33;82.03
39823;BME280;25499;53.958;10.970;2024-02-23T10:07:57;98147.31;;;8.04;81.70
39823;BME280;25499;53.958;10.970;2024-02-23T10:10:29;98179.16;;;8.08;81.87
39823;BME280;25499;53.958;10.970;2024-02-23T10:12:57;98171.66;;;8.25;81.41
39823;BME280;25499;53.958;10.970;2024-02-23T10:15:28;98117.00;;;7.82;80.98
39823;BME280;25499;53.958;10.970;2024-02-23T10:17:56;98161.56;;;7.92;81.26
39823;BME280;25499;53.958;10.970;2024-02-23T10:20:23;98154.78;;;7.63;81.51
39823;BME280;25499;53.958;10.970;2024-02-23T10:22:50;98151.94;;;7.44;81.52
39823;BME280;25499;53.958;10.970;2024-02-23T10:25:19;98184.97;;;7.64;81.52
39823;BME280;25499;53.958;10.970;2024-02-23T10:27:46;98195.16;;;7.69;81.04
39823;BME280;25499;53.958;10.970;2024-02-23T10:30:13;98215.91;;;7.67;81.65
39823;BME280;25499;53.958;10.970;2024-02-23T10:32:42;98287.25;;;8.04;82.38
39823;BME280;25499;53.958;10.970;2024-02-23T10:35:11;98256.47;;;7.95;81.99
39823;BME280;25499;53.958;10.970;2024-02-23T10:37:42;98236.53;;;7.70;81.70
39823;BME280;25499;53.958;10.970;2024-02-23T10:40:11;98250.41;;;7.69;81.63
39823;BME280;25499;53.958;10.970;2024-02-23T10:42:40;98239.28;;;7.65;81.64
39823;BME280;25499;53.958;10.970;2024-02-23T10:45:08;98215.66;;;7.48;81.63
39823;BME280;25499;53.958;10.970;2024-02-23T10:47:35;98224.66;;;7.36;81.45
39823;BME280;25499;53.958;10.970;2024-02-23T10:50:07;98232.25;;;7.42;81.66
39823;BME280;25499;53.958;10.970;2024-02-23T10:52:34;98205.69;;;7.36;81.34
39823;BME280;25499;53.958;10.970;2024-02-23T10:55:01;98218.47;;;7.14;81.07
39823;BME280;25499;53.958;10.970;2024-02-23T10:57:30;98227.16;;;7.11;80.82
39823;BME280;25499;53.958;10.970;2024-02-23T10:59:58;98221.22;;;7.07;81.00
39823;BME280;25499;53.958;10.970;2024-02-23T11:02:26;98240.88;;;7.15;81.28
39823;BME280;25499;53.958;10.970;2024-02-23T11:04:56;98258.69;;;7.24;81.47
39823;BME280;25499;53.958;10.970;2024-02-23T11:07:29;98342.31;;;8.11;81.61
39823;BME280;25499;53.958;10.970;2024-02-23T11:09:58;98242.81;;;7.90;80.66
39823;BME280;25499;53.958;10.970;2024-02-23T11:12:29;98217.06;;;7.85;79.69
39823;BME280;25499;53.958;10.970;2024-02-23T11:14:57;98293.13;;;8.86;79.78
39823;BME280;25499;53.958;10.970;2024-02-23T11:17:26;98304.91;;;9.86;78.28
39823;BME280;25499;53.958;10.970;2024-02-23T11:19:54;98190.44;;;9.47;76.42
39823;BME280;25499;53.958;10.970;2024-02-23T11:22:24;98207.19;;;10.83;74.53
39823;BME280;25499;53.958;10.970;2024-02-23T11:24:53;98200.16;;;11.41;72.86
39823;BME280;25499;53.958;10.970;2024-02-23T11:27:23;97974.25;;;10.00;69.89
39823;BME280;25499;53.958;10.970;2024-02-23T11:29:58;98007.19;;;9.60;70.95
39823;BME280;25499;53.958;10.970;2024-02-23T11:32:36;98043.31;;;9.25;71.69
39823;BME280;25499;53.958;10.970;2024-02-23T11:35:06;98054.78;;;8.77;72.50
39823;BME280;25499;53.958;10.970;2024-02-23T11:37:33;98200.56;;;10.16;73.17
39823;BME280;25499;53.958;10.970;2024-02-23T11:40:12;98221.28;;;12.59;69.45
39823;BME280;25499;53.958;10.970;2024-02-23T11:42:41;98286.66;;;15.35;66.74
39823;BME280;25499;53.958;10.970;2024-02-23T11:45:08;98010.41;;;15.23;60.67
39823;BME280;25499;53.958;10.970;2024-02-23T11:47:36;97897.81;;;14.28;58.30
39823;BME280;25499;53.958;10.970;2024-02-23T11:50:04;97808.84;;;12.89;58.25
39823;BME280;25499;53.958;10.970;2024-02-23T11:52:31;98042.63;;;14.98;58.23
39823;BME280;25499;53.958;10.970;2024-02-23T11:54:59;97930.41;;;15.56;55.03
39823;BME280;25499;53.958;10.970;2024-02-23T11:57:33;98068.06;;;17.61;53.29
39823;BME280;25499;53.958;10.970;2024-02-23T12:00:11;97765.75;;;15.48;50.39
39823;BME280;25499;53.958;10.970;2024-02-23T12:02:40;97815.72;;;15.71;50.10
39823;BME280;25499;53.958;10.970;2024-02-23T12:05:08;97844.06;;;16.02;49.69
39823;BME280;25499;53.958;10.970;2024-02-23T12:07:35;97821.41;;;16.01;49.21
39823;BME280;25499;53.958;10.970;2024-02-23T12:10:02;97646.88;;;14.75;48.44
39823;BME280;25499;53.958;10.970;2024-02-23T12:12:32;97589.97;;;12.40;51.29
39823;BME280;25499;53.958;10.970;2024-02-23T12:14:59;97642.94;;;11.52;53.11
39823;BME280;25499;53.958;10.970;2024-02-23T12:17:26;97934.66;;;13.40;53.87
39823;BME280;25499;53.958;10.970;2024-02-23T12:19:58;97773.16;;;13.60;51.53
39823;BME280;25499;53.958;10.970;2024-02-23T12:22:25;97703.41;;;13.33;51.11
39823;BME280;25499;53.958;10.970;2024-02-23T12:24:53;97870.66;;;15.35;50.14
39823;BME280;25499;53.958;10.970;2024-02-23T12:27:19;97729.59;;;14.39;49.38
39823;BME280;25499;53.958;10.970;2024-02-23T12:29:52;97798.66;;;14.89;49.50
39823;BME280;25499;53.958;10.970;2024-02-23T12:32:20;97712.56;;;15.22;47.97
39823;BME280;25499;53.958;10.970;2024-02-23T12:34:48;97748.56;;;15.44;47.17
39823;BME280;25499;53.958;10.970;2024-02-23T12:37:15;97803.81;;;16.15;47.04
39823;BME280;25499;53.958;10.970;2024-02-23T12:39:43;97778.72;;;17.04;45.42
39823;BME280;25499;53.958;10.970;2024-02-23T12:42:10;97770.44;;;17.09;44.88
39823;BME280;25499;53.958;10.970;2024-02-23T12:44:37;97669.00;;;16.27;44.38
39823;BME280;25499;53.958;10.970;2024-02-23T12:47:06;97617.06;;;15.61;45.03
39823;BME280;25499;53.958;10.970;2024-02-23T12:49:33;97649.63;;;15.35;45.58
39823;BME280;25499;53.958;10.970;2024-02-23T12:52:00;97705.38;;;15.61;45.89
39823;BME280;25499;53.958;10.970;2024-02-23T12:54:27;97799.56;;;16.01;46.24
39823;BME280;25499;53.958;10.970;2024-02-23T12:56:54;97662.38;;;14.01;47.16
39823;BME280;25499;53.958;10.970;2024-02-23T12:59:22;97636.69;;;12.86;48.75
39823;BME280;25499;53.958;10.970;2024-02-23T13:01:49;97603.75;;;11.24;50.58
39823;BME280;25499;53.958;10.970;2024-02-23T13:04:17;97724.63;;;10.54;52.64
39823;BME280;25499;53.958;10.970;2024-02-23T13:06:44;97782.13;;;9.78;54.90
39823;BME280;25499;53.958;10.970;2024-02-23T13:09:10;97858.66;;;9.33;56.43
39823;BME280;25499;53.958;10.970;2024-02-23T13:11:38;97950.13;;;9.19;57.42
39823;BME280;25499;53.958;10.970;2024-02-23T13:14:05;97994.38;;;9.16;58.13
39823;BME280;25499;53.958;10.970;2024-02-23T13:16:32;98100.22;;;9.30;59.74
39823;BME280;25499;53.958;10.970;2024-02-23T13:18:58;98075.19;;;8.86;59.77
39823;BME280;25499;53.958;10.970;2024-02-23T13:21:27;98120.41;;;8.79;60.68
39823;BME280;25499;53.958;10.970;2024-02-23T13:23:54;98189.75;;;8.98;61.19
39823;BME280;25499;53.958;10.970;2024-02-23T13:26:21;98167.34;;;8.73;60.98
39823;BME280;25499;53.958;10.970;2024-02-23T13:28:47;98205.34;;;8.74;61.29
39823;BME280;25499;53.958;10.970;2024-02-23T13:31:14;98237.38;;;8.73;62.09
39823;BME280;25499;53.958;10.970;2024-02-23T13:33:42;98299.03;;;8.90;62.45
39823;BME280;25499;53.958;10.970;2024-02-23T13:36:09;98313.44;;;8.99;62.69
39823;BME280;25499;53.958;10.970;2024-02-23T13:38:37;98344.47;;;9.02;63.04
39823;BME280;25499;53.958;10.970;2024-02-23T13:41:05;98344.81;;;8.91;63.01
39823;BME280;25499;53.958;10.970;2024-02-23T13:43:31;98352.09;;;8.81;63.00
39823;BME280;25499;53.958;10.970;2024-02-23T13:45:59;98367.22;;;8.68;63.75
39823;BME280;25499;53.958;10.970;2024-02-23T13:48:25;98351.31;;;8.54;63.64
39823;BME280;25499;53.958;10.970;2024-02-23T13:50:52;98374.59;;;8.55;63.91
39823;BME280;25499;53.958;10.970;2024-02-23T13:53:19;98358.69;;;8.38;63.68
39823;BME280;25499;53.958;10.970;2024-02-23T13:55:48;98365.63;;;8.37;63.86
39823;BME280;25499;53.958;10.970;2024-02-23T13:58:15;98398.19;;;8.48;63.68
39823;BME280;25499;53.958;10.970;2024-02-23T14:00:43;98388.34;;;8.57;63.66
39823;BME280;25499;53.958;10.970;2024-02-23T14:03:16;98351.03;;;8.35;63.48
39823;BME280;25499;53.958;10.970;2024-02-23T14:05:43;98363.06;;;8.37;63.79
39823;BME280;25499;53.958;10.970;2024-02-23T14:08:11;98321.25;;;8.21;62.81
39823;BME280;25499;53.958;10.970;2024-02-23T14:10:38;98381.78;;;8.47;63.43
39823;BME280;25499;53.958;10.970;2024-02-23T14:13:09;98332.13;;;8.31;62.27
39823;BME280;25499;53.958;10.970;2024-02-23T14:15:37;98334.44;;;8.14;62.58
39823;BME280;25499;53.958;10.970;2024-02-23T14:18:04;98347.34;;;8.15;62.86
39823;BME280;25499;53.958;10.970;2024-02-23T14:20:31;98357.91;;;8.09;63.49
39823;BME280;25499;53.958;10.970;2024-02-23T14:22:58;98390.66;;;8.12;63.93
39823;BME280;25499;53.958;10.970;2024-02-23T14:25:25;98400.03;;;8.16;64.23
39823;BME280;25499;53.958;10.970;2024-02-23T14:27:52;98403.53;;;8.15;63.96
39823;BME280;25499;53.958;10.970;2024-02-23T14:30:22;98411.88;;;8.23;64.33
39823;BME280;25499;53.958;10.970;2024-02-23T14:32:49;98426.69;;;8.19;64.49
39823;BME280;25499;53.958;10.970;2024-02-23T14:35:16;98437.25;;;8.13;64.97
39823;BME280;25499;53.958;10.970;2024-02-23T14:37:44;98489.19;;;8.10;65.66
39823;BME280;25499;53.958;10.970;2024-02-23T14:40:11;98475.44;;;8.08;65.70
39823;BME280;25499;53.958;10.970;2024-02-23T14:42:40;98501.44;;;8.05;65.88
39823;BME280;25499;53.958;10.970;2024-02-23T14:45:08;98494.63;;;8.01;65.81
39823;BME280;25499;53.958;10.970;2024-02-23T14:47:39;98508.56;;;7.97;66.47
39823;BME280;25499;53.958;10.970;2024-02-23T14:50:07;98555.25;;;7.95;67.47
39823;BME280;25499;53.958;10.970;2024-02-23T14:52:35;98550.19;;;7.91;66.97
39823;BME280;25499;53.958;10.970;2024-02-23T14:55:02;98552.72;;;7.92;67.21
39823;BME280;25499;53.958;10.970;2024-02-23T14:57:29;98577.88;;;7.89;67.96
39823;BME280;25499;53.958;10.970;2024-02-23T14:59:56;98578.88;;;7.84;67.34
39823;BME280;25499;53.958;10.970;2024-02-23T15:02:23;98559.03;;;7.83;67.62
39823;BME280;25499;53.958;10.970;2024-02-23T15:04:51;98561.84;;;7.76;67.66
39823;BME280;25499;53.958;10.970;2024-02-23T15:07:18;98567.94;;;7.73;67.76
39823;BME280;25499;53.958;10.970;2024-02-23T15:09:45;98581.81;;;7.72;68.08
39823;BME280;25499;53.958;10.970;2024-02-23T15:12:12;98601.50;;;7.78;68.42
39823;BME280;25499;53.958;10.970;2024-02-23T15:14:40;98630.78;;;7.80;69.12
39823;BME280;25499;53.958;10.970;2024-02-23T15:17:07;98612.59;;;7.83;68.42
39823;BME280;25499;53.958;10.970;2024-02-23T15:19:34;98619.81;;;7.70;69.04
39823;BME280;25499;53.958;10.970;2024-02-23T15:22:03;98611.94;;;7.75;68.64
39823;BME280;25499;53.958;10.970;2024-02-23T15:24:30;98628.31;;;7.75;69.01
39823;BME280;25499;53.958;10.970;2024-02-23T15:26:58;98612.91;;;7.71;69.25
39823;BME280;25499;53.958;10.970;2024-02-23T15:29:25;98641.47;;;7.68;70.31
39823;BME280;25499;53.958;10.970;2024-02-23T15:31:52;98660.41;;;7.70;70.45
39823;BME280;25499;53.958;10.970;2024-02-23T15:34:19;98667.91;;;7.80;70.55
39823;BME280;25499;53.958;10.970;2024-02-23T15:36:47;98652.34;;;7.80;70.15
39823;BME280;25499;53.958;10.970;2024-02-23T15:39:15;98654.00;;;7.84;70.26
39823;BME280;25499;53.958;10.970;2024-02-23T15:41:42;98659.19;;;7.84;70.17
39823;BME280;25499;53.958;10.970;2024-02-23T15:44:09;98658.91;;;7.94;69.90
39823;BME280;25499;53.958;10.970;2024-02-23T15:46:36;98641.91;;;7.83;69.72
39823;BME280;25499;53.958;10.970;2024-02-23T15:49:04;98629.16;;;7.77;69.66
39823;BME280;25499;53.958;10.970;2024-02-23T15:51:31;98662.09;;;7.72;70.71
39823;BME280;25499;53.958;10.970;2024-02-23T15:53:59;98664.81;;;7.66;70.86
39823;BME280;25499;53.958;10.970;2024-02-23T15:56:28;98677.97;;;7.57;71.09
39823;BME280;25499;53.958;10.970;2024-02-23T15:58:55;98678.09;;;7.54;71.43
39823;BME280;25499;53.958;10.970;2024-02-23T16:01:22;98699.53;;;7.59;71.67
39823;BME280;25499;53.958;10.970;2024-02-23T16:03:50;98728.97;;;7.55;72.42
39823;BME280;25499;53.958;10.970;2024-02-23T16:06:16;98743.63;;;7.56;72.58
39823;BME280;25499;53.958;10.970;2024-02-23T16:08:45;98740.97;;;7.59;72.48
39823;BME280;25499;53.958;10.970;2024-02-23T16:11:14;98747.75;;;7.63;72.69
39823;BME280;25499;53.958;10.970;2024-02-23T16:13:43;98738.44;;;7.56;72.44
39823;BME280;25499;53.958;10.970;2024-02-23T16:16:11;98737.50;;;7.58;72.51
39823;BME280;25499;53.958;10.970;2024-02-23T16:18:40;98732.47;;;7.54;72.35
39823;BME280;25499;53.958;10.970;2024-02-23T16:21:07;98732.59;;;7.47;72.56
39823;BME280;25499;53.958;10.970;2024-02-23T16:23:35;98749.69;;;7.55;72.66
39823;BME280;25499;53.958;10.970;2024-02-23T16:26:03;98754.97;;;7.50;73.07
39823;BME280;25499;53.958;10.970;2024-02-23T16:28:30;98746.38;;;7.48;72.87
39823;BME280;25499;53.958;10.970;2024-02-23T16:30:59;98762.69;;;7.52;73.34
39823;BME280;25499;53.958;10.970;2024-02-23T16:33:26;98765.53;;;7.41;73.42
39823;BME280;25499;53.958;10.970;2024-02-23T16:35:53;98771.75;;;7.34;73.72
39823;BME280;25499;53.958;10.970;2024-02-23T16:38:21;98785.44;;;7.39;74.01
39823;BME280;25499;53.958;10.970;2024-02-23T16:40:48;98783.66;;;7.41;73.97
39823;BME280;25499;53.958;10.970;2024-02-23T16:43:16;98772.31;;;7.46;73.27
39823;BME280;25499;53.958;10.970;2024-02-23T16:45:43;98777.69;;;7.37;73.62
39823;BME280;25499;53.958;10.970;2024-02-23T16:48:11;98753.53;;;7.38;73.42
39823;BME280;25499;53.958;10.970;2024-02-23T16:50:39;98781.31;;;7.30;73.51
39823;BME280;25499;53.958;10.970;2024-02-23T16:53:06;98758.91;;;7.29;73.30
39823;BME280;25499;53.958;10.970;2024-02-23T16:55:33;98766.72;;;7.26;73.52
39823;BME280;25499;53.958;10.970;2024-02-23T16:58:00;98793.28;;;7.34;73.97
39823;BME280;25499;53.958;10.970;2024-02-23T17:00:28;98785.56;;;7.33;73.54
39823;BME280;25499;53.958;10.970;2024-02-23T17:02:55;98796.19;;;7.20;74.22
39823;BME280;25499;53.958;10.970;2024-02-23T17:05:24;98810.97;;;7.14;74.85
39823;BME280;25499;53.958;10.970;2024-02-23T17:07:50;98799.03;;;7.08;74.74
39823;BME280;25499;53.958;10.970;2024-02-23T17:10:17;98798.38;;;6.98;74.96
39823;BME280;25499;53.958;10.970;2024-02-23T17:12:44;98836.19;;;7.04;74.81
39823;BME280;25499;53.958;10.970;2024-02-23T17:15:13;98821.63;;;7.00;75.00
39823;BME280;25499;53.958;10.970;2024-02-23T17:17:41;98813.25;;;6.85;75.00
39823;BME280;25499;53.958;10.970;2024-02-23T17:20:09;98815.03;;;6.83;75.06
39823;BME280;25499;53.958;10.970;2024-02-23T17:22:37;98821.81;;;6.89;75.29
39823;BME280;25499;53.958;10.970;2024-02-23T17:25:05;98826.34;;;6.79;75.44
39823;BME280;25499;53.958;10.970;2024-02-23T17:27:32;98839.91;;;6.89;75.44
39823;BME280;25499;53.958;10.970;2024-02-23T17:30:00;98838.47;;;6.76;75.83
39823;BME280;25499;53.958;10.970;2024-02-23T17:32:26;98860.78;;;6.81;76.34
39823;BME280;25499;53.958;10.970;2024-02-23T17:34:53;98861.63;;;6.82;75.91
39823;BME280;25499;53.958;10.970;2024-02-23T17:37:20;98850.50;;;6.77;75.88
39823;BME280;25499;53.958;10.970;2024-02-23T17:39:48;98850.69;;;6.67;76.23
39823;BME280;25499;53.958;10.970;2024-02-23T17:42:15;98863.63;;;6.67;76.25
39823;BME280;25499;53.958;10.970;2024-02-23T17:44:41;98873.91;;;6.70;76.76
39823;BME280;25499;53.958;10.970;2024-02-23T17:47:08;98886.84;;;6.70;76.88
39823;BME280;25499;53.958;10.970;2024-02-23T17:49:35;98883.34;;;6.73;76.56
39823;BME280;25499;53.958;10.970;2024-02-23T17:52:01;98888.59;;;6.67;76.56
39823;BME280;25499;53.958;10.970;2024-02-23T17:54:28;98884.34;;;6.64;76.63
39823;BME280;25499;53.958;10.970;2024-02-23T17:56:56;98893.94;;;6.58;76.91
39823;BME280;25499;53.958;10.970;2024-02-23T17:59:23;98896.56;;;6.56;76.56
39823;BME280;25499;53.958;10.970;2024-02-23T18:01:50;98909.50;;;6.54;76.99
39823;BME280;25499;53.958;10.970;2024-02-23T18:04:17;98898.31;;;6.54;76.85
39823;BME280;25499;53.958;10.970;2024-02-23T18:06:47;98903.50;;;6.52;77.03
39823;BME280;25499;53.958;10.970;2024-02-23T18:09:15;98906.28;;;6.42;77.35
39823;BME280;25499;53.958;10.970;2024-02-23T18:11:42;98911.59;;;6.31;77.14
39823;BME280;25499;53.958;10.970;2024-02-23T18:14:12;98924.53;;;6.31;77.61
39823;BME280;25499;53.958;10.970;2024-02-23T18:16:39;98942.56;;;6.34;77.82
39823;BME280;25499;53.958;10.970;2024-02-23T18:19:06;98949.28;;;6.46;77.50
39823;BME280;25499;53.958;10.970;2024-02-23T18:21:33;98961.41;;;6.42;77.80
39823;BME280;25499;53.958;10.970;2024-02-23T18:24:00;98939.81;;;6.45;77.60
39823;BME280;25499;53.958;10.970;2024-02-23T18:26:27;98958.75;;;6.47;77.63
39823;BME280;25499;53.958;10.970;2024-02-23T18:28:53;98953.63;;;6.44;77.68
39823;BME280;25499;53.958;10.970;2024-02-23T18:31:21;98946.06;;;6.31;77.62
39823;BME280;25499;53.958;10.970;2024-02-23T18:33:48;98959.88;;;6.29;78.09
39823;BME280;25499;53.958;10.970;2024-02-23T18:36:15;98960.84;;;6.23;78.00
39823;BME280;25499;53.958;10.970;2024-02-23T18:38:44;98991.69;;;6.32;78.60
39823;BME280;25499;53.958;10.970;2024-02-23T18:41:12;98989.38;;;6.14;78.93
39823;BME280;25499;53.958;10.970;2024-02-23T18:43:39;99009.94;;;6.22;78.97
39823;BME280;25499;53.958;10.970;2024-02-23T18:46:06;99016.78;;;6.26;79.07
39823;BME280;25499;53.958;10.970;2024-02-23T18:48:34;99012.41;;;6.29;79.03
39823;BME280;25499;53.958;10.970;2024-02-23T18:51:01;99017.72;;;6.20;79.32
39823;BME280;25499;53.958;10.970;2024-02-23T18:53:28;99009.13;;;6.18;79.31
39823;BME280;25499;53.958;10.970;2024-02-23T18:55:56;99006.44;;;6.26;79.25
39823;BME280;25499;53.958;10.970;2024-02-23T18:58:23;99009.03;;;6.24;78.99
39823;BME280;25499;53.958;10.970;2024-02-23T19:00:50;99011.63;;;6.23;79.31
39823;BME280;25499;53.958;10.970;2024-02-23T19:03:17;98996.97;;;6.26;78.75
39823;BME280;25499;53.958;10.970;2024-02-23T19:05:45;99003.13;;;6.16;78.88
39823;BME280;25499;53.958;10.970;2024-02-23T19:08:12;99007.38;;;6.20;78.97
39823;BME280;25499;53.958;10.970;2024-02-23T19:10:39;99016.00;;;6.19;79.01
39823;BME280;25499;53.958;10.970;2024-02-23T19:13:06;99014.19;;;6.26;79.10
39823;BME280;25499;53.958;10.970;2024-02-23T19:15:34;99021.94;;;6.26;79.30
39823;BME280;25499;53.958;10.970;2024-02-23T19:18:03;99024.59;;;6.21;79.41
39823;BME280;25499;53.958;10.970;2024-02-23T19:20:29;99009.34;;;6.04;79.67
39823;BME280;25499;53.958;10.970;2024-02-23T19:22:57;99023.25;;;5.89;79.80
39823;BME280;25499;53.958;10.970;2024-02-23T19:25:25;99034.44;;;5.88;80.36
39823;BME280;25499;53.958;10.970;2024-02-23T19:27:52;99044.81;;;5.84;80.65
39823;BME280;25499;53.958;10.970;2024-02-23T19:30:20;99053.44;;;5.86;80.82
39823;BME280;25499;53.958;10.970;2024-02-23T19:32:47;99068.16;;;5.76;81.18
39823;BME280;25499;53.958;10.970;2024-02-23T19:35:17;99065.75;;;5.60;81.30
39823;BME280;25499;53.958;10.970;2024-02-23T19:37:44;99090.63;;;5.68;82.10
39823;BME280;25499;53.958;10.970;2024-02-23T19:40:12;99093.06;;;5.80;81.62
39823;BME280;25499;53.958;10.970;2024-02-23T19:42:46;99085.34;;;5.77;81.86
39823;BME280;25499;53.958;10.970;2024-02-23T19:45:13;99081.06;;;5.76;81.80
39823;BME280;25499;53.958;10.970;2024-02-23T19:47:40;99081.03;;;5.81;81.67
39823;BME280;25499;53.958;10.970;2024-02-23T19:50:07;99078.50;;;5.76;81.77
39823;BME280;25499;53.958;10.970;2024-02-23T19:52:34;99074.19;;;5.75;81.67
39823;BME280;25499;53.958;10.970;2024-02-23T19:55:01;99082.91;;;5.65;82.09
39823;BME280;25499;53.958;10.970;2024-02-23T19:57:29;99082.13;;;5.56;82.26
39823;BME280;25499;53.958;10.970;2024-02-23T19:59:56;99102.72;;;5.64;82.45
39823;BME280;25499;53.958;10.970;2024-02-23T20:02:24;99102.78;;;5.55;82.96
39823;BME280;25499;53.958;10.970;2024-02-23T20:04:51;99106.41;;;5.38;83.22
39823;BME280;25499;53.958;10.970;2024-02-23T20:07:17;99116.72;;;5.37;83.53